Time;durP1;ratioP1;P1;durP2;ratioP2;P2;SDS_P1;SDS_P2;PMS_P1;PMS_P2;Temp;Humidity;BMP_temperature;BMP_pressure;BME280_temperature;BME280_humidity;BME280_pressure;Samples;Min_cycle;Max_cycle;Signal;HPM_P1;HPM_P2
2023/01/14 00:04:54;;;;;;;33.05;17.30;;;;;;;;;;20913214;28;20052;-63
2023/01/14 00:14:56;;;;;;;33.83;18.05;;;;;;;;;;20911271;28;20199;-59
2023/01/14 00:24:58;;;;;;;35.30;19.42;;;;;;;;;;20894760;28;20105;-60
2023/01/14 00:35:00;;;;;;;33.58;17.73;;;;;;;;;;20926046;28;20477;-62
2023/01/14 00:45:03;;;;;;;37.38;18.23;;;;;;;;;;20927737;28;20057;-59
2023/01/14 00:55:05;;;;;;;36.00;19.83;;;;;;;;;;20925356;28;20207;-59
2023/01/14 01:05:08;;;;;;;35.35;18.73;;;;;;;;;;20924429;28;20081;-59
2023/01/14 01:15:10;;;;;;;35.78;20.02;;;;;;;;;;20923268;28;20136;-60
2023/01/14 01:25:12;;;;;;;31.80;18.52;;;;;;;;;;20922645;28;20477;-59
2023/01/14 01:35:14;;;;;;;37.10;19.38;;;;;;;;;;20921521;28;20048;-58
2023/01/14 01:45:17;;;;;;;32.40;18.77;;;;;;;;;;20920882;28;20103;-60
2023/01/14 01:55:37;;;;;;;20.02;11.13;;;;;;;;;;20920383;28;20049;-58
2023/01/14 02:05:39;;;;;;;16.23;8.15;;;;;;;;;;20919162;28;20084;-65
2023/01/14 02:15:55;;;;;;;15.07;7.88;;;;;;;;;;20917354;28;20080;-60
2023/01/14 02:26:10;;;;;;;13.32;7.45;;;;;;;;;;20916993;28;20417;-59
2023/01/14 02:36:27;;;;;;;15.63;7.47;;;;;;;;;;20916779;28;20079;-68
2023/01/14 02:47:00;;;;;;;12.35;6.88;;;;;;;;;;20917620;28;20048;-72
2023/01/14 02:57:38;;;;;;;12.75;7.68;;;;;;;;;;20974728;28;20052;-69
2023/01/14 03:08:11;;;;;;;15.52;7.43;;;;;;;;;;20998408;28;20048;-60
2023/01/14 03:18:53;;;;;;;14.07;8.15;;;;;;;;;;20996251;28;20055;-58
2023/01/14 03:29:01;;;;;;;14.80;8.35;;;;;;;;;;20977480;28;20049;-62
2023/01/14 03:39:13;;;;;;;15.27;7.93;;;;;;;;;;20913659;28;20049;-57
2023/01/14 03:49:27;;;;;;;16.42;8.20;;;;;;;;;;20912487;28;20477;-66
2023/01/14 04:00:01;;;;;;;14.48;8.00;;;;;;;;;;20912410;28;20132;-57
2023/01/14 04:10:18;;;;;;;14.38;8.52;;;;;;;;;;20926465;28;20053;-58
2023/01/14 04:20:31;;;;;;;15.70;7.53;;;;;;;;;;20927120;28;20522;-62
2023/01/14 04:30:53;;;;;;;12.02;7.05;;;;;;;;;;20928028;28;20049;-59
2023/01/14 04:51:55;;;;;;;11.70;7.10;;;;;;;;;;20926088;28;20049;-64
2023/01/14 05:02:08;;;;;;;13.05;7.68;;;;;;;;;;20924254;28;20511;-68
2023/01/14 05:12:21;;;;;;;13.68;7.65;;;;;;;;;;20924213;28;20092;-69
2023/01/14 05:22:37;;;;;;;13.70;7.32;;;;;;;;;;21238016;27;20896;-65
2023/01/14 05:32:58;;;;;;;15.23;8.27;;;;;;;;;;21238961;28;20051;-61
2023/01/14 05:53:26;;;;;;;14.18;7.35;;;;;;;;;;21235155;28;20114;-70
2023/01/14 06:14:11;;;;;;;15.20;8.07;;;;;;;;;;21233949;28;20086;-59
2023/01/14 06:24:17;;;;;;;31.08;16.67;;;;;;;;;;21230745;28;20050;-60
2023/01/14 06:34:21;;;;;;;36.10;17.77;;;;;;;;;;21174977;28;20104;-60
2023/01/14 06:44:36;;;;;;;33.15;17.02;;;;;;;;;;21068913;27;20901;-62
2023/01/14 06:54:38;;;;;;;32.90;18.23;;;;;;;;;;21068301;28;20072;-64
2023/01/14 07:04:44;;;;;;;28.98;15.43;;;;;;;;;;21068444;28;20389;-61
2023/01/14 07:14:46;;;;;;;29.67;15.65;;;;;;;;;;21068053;28;20044;-68
2023/01/14 07:24:49;;;;;;;15.00;8.52;;;;;;;;;;21071502;28;20052;-66
2023/01/14 07:34:51;;;;;;;15.90;7.50;;;;;;;;;;21066101;28;20044;-70
2023/01/14 07:44:53;;;;;;;14.02;6.93;;;;;;;;;;21064400;28;20051;-62
2023/01/14 07:54:55;;;;;;;14.73;7.25;;;;;;;;;;21013065;28;20122;-68
2023/01/14 08:04:57;;;;;;;11.52;7.47;;;;;;;;;;21007096;28;20045;-68
2023/01/14 08:15:00;;;;;;;15.45;8.88;;;;;;;;;;21006483;28;20040;-71
2023/01/14 08:25:01;;;;;;;13.55;7.57;;;;;;;;;;21006385;28;20052;-73
2023/01/14 08:35:04;;;;;;;12.95;7.03;;;;;;;;;;21004873;28;20106;-74
2023/01/14 08:45:07;;;;;;;14.80;7.72;;;;;;;;;;21005207;28;20200;-71
2023/01/14 08:55:09;;;;;;;14.95;7.07;;;;;;;;;;21005233;28;20048;-72
2023/01/14 09:05:13;;;;;;;14.32;8.45;;;;;;;;;;21001205;28;20056;-72
2023/01/14 09:25:38;;;;;;;29.42;16.50;;;;;;;;;;20999799;28;20105;-71
2023/01/14 09:35:40;;;;;;;26.08;14.77;;;;;;;;;;20998569;28;20044;-72
2023/01/14 09:45:42;;;;;;;27.83;15.68;;;;;;;;;;20998805;28;20460;-72
2023/01/14 09:55:48;;;;;;;24.27;14.10;;;;;;;;;;20996489;28;20488;-64
2023/01/14 10:06:02;;;;;;;22.70;13.10;;;;;;;;;;20998293;28;20068;-68
2023/01/14 10:16:10;;;;;;;28.35;14.48;;;;;;;;;;20997521;28;20049;-62
2023/01/14 10:26:16;;;;;;;21.17;13.30;;;;;;;;;;20996342;28;20404;-61
2023/01/14 10:36:21;;;;;;;21.75;12.15;;;;;;;;;;20994994;28;20089;-63
2023/01/14 10:46:23;;;;;;;24.63;13.27;;;;;;;;;;20995424;28;20076;-63
2023/01/14 10:56:27;;;;;;;24.08;12.95;;;;;;;;;;20996333;28;20484;-67
2023/01/14 11:06:30;;;;;;;26.98;15.25;;;;;;;;;;20995882;28;20489;-66
2023/01/14 11:16:36;;;;;;;29.13;14.70;;;;;;;;;;20996196;28;20048;-68
2023/01/14 11:26:40;;;;;;;25.70;14.48;;;;;;;;;;21001173;28;20049;-69
2023/01/14 11:36:43;;;;;;;20.05;11.85;;;;;;;;;;21009128;28;20411;-72
2023/01/14 11:46:46;;;;;;;21.00;11.10;;;;;;;;;;21008084;28;20051;-71
2023/01/14 11:56:48;;;;;;;20.35;12.32;;;;;;;;;;21008602;28;20058;-72
2023/01/14 12:06:52;;;;;;;30.98;13.65;;;;;;;;;;21006807;28;20443;-71
2023/01/14 12:16:59;;;;;;;28.88;14.07;;;;;;;;;;21005296;28;20079;-71
2023/01/14 12:27:02;;;;;;;30.90;16.95;;;;;;;;;;21004884;28;20138;-69
2023/01/14 12:37:09;;;;;;;26.17;15.13;;;;;;;;;;21005583;28;20053;-71
2023/01/14 12:47:12;;;;;;;27.95;15.95;;;;;;;;;;21005617;28;20139;-72
2023/01/14 12:57:19;;;;;;;34.38;16.67;;;;;;;;;;21002949;28;20049;-71
2023/01/14 13:07:26;;;;;;;37.60;19.95;;;;;;;;;;21002806;28;20048;-71
2023/01/14 13:17:34;;;;;;;37.10;20.27;;;;;;;;;;21001417;28;20066;-73
2023/01/14 13:27:39;;;;;;;38.85;19.83;;;;;;;;;;21001806;28;20101;-67
2023/01/14 13:37:43;;;;;;;41.42;20.95;;;;;;;;;;20998521;28;20052;-60
2023/01/14 13:47:48;;;;;;;40.47;22.08;;;;;;;;;;20999155;28;20044;-64
2023/01/14 13:57:55;;;;;;;43.00;22.42;;;;;;;;;;20997837;28;20048;-64
2023/01/14 14:08:18;;;;;;;40.53;21.20;;;;;;;;;;21000257;28;20480;-74
2023/01/14 14:18:29;;;;;;;42.42;22.27;;;;;;;;;;20998659;28;20045;-62
2023/01/14 14:28:32;;;;;;;37.97;21.02;;;;;;;;;;20998574;28;20044;-58
2023/01/14 14:38:35;;;;;;;39.83;21.83;;;;;;;;;;20997387;28;20519;-64
2023/01/14 14:48:40;;;;;;;39.72;22.20;;;;;;;;;;20996943;28;20044;-58
2023/01/14 14:58:44;;;;;;;44.75;23.35;;;;;;;;;;21002077;28;20048;-63
2023/01/14 15:08:56;;;;;;;46.22;23.23;;;;;;;;;;21013048;28;20048;-67
2023/01/14 15:19:01;;;;;;;35.53;19.45;;;;;;;;;;21011035;28;20052;-62
2023/01/14 15:29:03;;;;;;;40.28;21.50;;;;;;;;;;21010292;28;20040;-61
2023/01/14 15:39:11;;;;;;;38.53;21.23;;;;;;;;;;21008468;28;20393;-73
2023/01/14 15:49:17;;;;;;;36.75;20.98;;;;;;;;;;21009343;28;20544;-66
2023/01/14 15:59:19;;;;;;;31.58;17.63;;;;;;;;;;21007779;28;20088;-63
2023/01/14 16:09:22;;;;;;;36.35;18.88;;;;;;;;;;21007699;28;20048;-67
2023/01/14 16:19:26;;;;;;;29.95;17.55;;;;;;;;;;21007545;28;20149;-69
2023/01/14 16:29:28;;;;;;;32.15;16.98;;;;;;;;;;21005198;28;20045;-70
2023/01/14 16:39:31;;;;;;;30.75;17.10;;;;;;;;;;21004875;28;20096;-72
2023/01/14 16:49:33;;;;;;;31.90;18.83;;;;;;;;;;21005045;28;20052;-73
2023/01/14 16:59:35;;;;;;;31.90;17.58;;;;;;;;;;21003440;28;20048;-62
2023/01/14 17:09:38;;;;;;;32.78;18.23;;;;;;;;;;21001640;28;20086;-63
2023/01/14 17:19:42;;;;;;;35.13;19.50;;;;;;;;;;21000045;28;20049;-60
2023/01/14 17:29:43;;;;;;;38.40;20.55;;;;;;;;;;21002854;28;20055;-61
2023/01/14 17:39:46;;;;;;;36.15;21.15;;;;;;;;;;21005631;28;20052;-60
2023/01/14 17:49:48;;;;;;;35.88;19.27;;;;;;;;;;21000725;28;20083;-69
2023/01/14 17:59:51;;;;;;;49.40;25.35;;;;;;;;;;21002035;28;20053;-59
2023/01/14 18:09:53;;;;;;;53.88;28.13;;;;;;;;;;20997622;28;20044;-58
2023/01/14 18:19:56;;;;;;;49.78;28.48;;;;;;;;;;20996465;28;20048;-63
2023/01/14 18:29:57;;;;;;;51.78;26.95;;;;;;;;;;20997167;28;20158;-62
2023/01/14 18:40:00;;;;;;;47.83;28.08;;;;;;;;;;20995602;28;20064;-59
2023/01/14 18:50:02;;;;;;;57.05;29.60;;;;;;;;;;20999386;28;20514;-73
2023/01/14 19:00:07;;;;;;;57.95;31.75;;;;;;;;;;20997784;28;20048;-73
2023/01/14 19:10:10;;;;;;;53.92;28.13;;;;;;;;;;20999333;28;20036;-73
2023/01/14 19:20:12;;;;;;;54.08;30.40;;;;;;;;;;20995044;28;20067;-70
2023/01/14 19:30:14;;;;;;;58.65;29.10;;;;;;;;;;20994236;28;20045;-73
2023/01/14 19:40:16;;;;;;;59.60;32.45;;;;;;;;;;20995384;28;20390;-72
2023/01/14 19:50:18;;;;;;;62.25;32.92;;;;;;;;;;21006245;28;20052;-57
2023/01/14 20:00:20;;;;;;;60.63;32.08;;;;;;;;;;21007924;28;20049;-70
2023/01/14 20:10:22;;;;;;;57.72;30.90;;;;;;;;;;21007175;28;20094;-70
2023/01/14 20:20:24;;;;;;;58.03;30.23;;;;;;;;;;21009548;28;20507;-62
2023/01/14 20:30:26;;;;;;;56.20;29.88;;;;;;;;;;21006155;28;20040;-70
2023/01/14 20:40:28;;;;;;;57.30;29.05;;;;;;;;;;21003968;28;20137;-63
2023/01/14 20:50:30;;;;;;;49.65;27.08;;;;;;;;;;21004229;28;20539;-61
2023/01/14 21:00:32;;;;;;;55.70;28.40;;;;;;;;;;21002621;28;20121;-62
2023/01/14 21:10:34;;;;;;;57.67;29.33;;;;;;;;;;21002333;28;20514;-61
2023/01/14 21:30:56;;;;;;;54.17;28.70;;;;;;;;;;21000245;28;20106;-62
2023/01/14 21:51:19;;;;;;;53.38;26.88;;;;;;;;;;20998908;28;20477;-60
2023/01/14 22:01:21;;;;;;;51.17;26.08;;;;;;;;;;20997670;28;20048;-58
2023/01/14 22:11:23;;;;;;;56.47;28.33;;;;;;;;;;20997674;28;20455;-58
2023/01/14 22:21:25;;;;;;;49.40;25.58;;;;;;;;;;20996059;28;20063;-59
2023/01/14 22:31:29;;;;;;;52.35;26.52;;;;;;;;;;20996909;28;20047;-61
2023/01/14 22:41:32;;;;;;;63.83;31.27;;;;;;;;;;20996105;28;20060;-65
2023/01/14 22:51:34;;;;;;;50.45;27.20;;;;;;;;;;20996573;28;20460;-72
2023/01/14 23:01:38;;;;;;;56.13;28.55;;;;;;;;;;20995248;28;20063;-73
2023/01/14 23:11:40;;;;;;;51.20;27.02;;;;;;;;;;20995243;28;20524;-68
2023/01/14 23:32:04;;;;;;;54.30;27.58;;;;;;;;;;21010235;28;20076;-72
2023/01/14 23:42:06;;;;;;;54.47;26.80;;;;;;;;;;21008365;28;20060;-73
2023/01/14 23:52:08;;;;;;;52.25;26.25;;;;;;;;;;21008883;28;20055;-76
